createdAt,value
2022-11-07T00:01:15.255Z,29.55
2022-11-07T00:03:41.897Z,30.40
2022-11-07T00:06:08.614Z,29.65
2022-11-07T00:08:35.383Z,31.45
2022-11-07T00:11:02.880Z,29.55
2022-11-07T00:13:29.736Z,29.52
2022-11-07T00:16:01.175Z,28.95
2022-11-07T00:18:28.124Z,30.47
2022-11-07T00:20:54.889Z,30.65
2022-11-07T00:23:21.636Z,29.75
2022-11-07T00:25:48.236Z,30.83
2022-11-07T00:28:14.924Z,29.67
2022-11-07T00:30:41.617Z,31.05
2022-11-07T00:33:08.352Z,31.15
2022-11-07T00:35:35.061Z,32.08
2022-11-07T00:38:01.626Z,28.77
2022-11-07T00:40:28.277Z,28.67
2022-11-07T00:42:54.849Z,31.10
2022-11-07T00:45:21.520Z,32.45
2022-11-07T00:47:48.215Z,32.17
2022-11-07T00:50:14.826Z,32.63
2022-11-07T00:52:41.456Z,30.15
2022-11-07T00:55:08.177Z,31.42
2022-11-07T00:57:34.790Z,31.27
2022-11-07T01:00:01.428Z,31.98
2022-11-07T01:02:28.248Z,33.33
2022-11-07T01:05:13.317Z,32.47
2022-11-07T01:07:40.194Z,29.77
2022-11-07T01:10:08.060Z,30.15
2022-11-07T01:12:35.848Z,30.98
2022-11-07T01:15:04.024Z,33.35
2022-11-07T01:17:30.719Z,32.90
2022-11-07T01:19:57.505Z,31.42
2022-11-07T01:22:24.192Z,32.00
2022-11-07T01:24:50.848Z,35.72
2022-11-07T01:27:17.448Z,33.58
2022-11-07T01:29:44.160Z,33.83
2022-11-07T01:32:10.822Z,33.60
2022-11-07T01:34:37.501Z,34.90
2022-11-07T01:37:04.084Z,35.28
2022-11-07T01:39:30.677Z,34.30
2022-11-07T01:41:57.513Z,32.92
2022-11-07T01:44:24.025Z,34.72
2022-11-07T01:46:52.678Z,32.80
2022-11-07T01:49:22.232Z,32.28
2022-11-07T01:51:57.963Z,33.60
2022-11-07T01:54:29.530Z,32.47
2022-11-07T01:56:58.900Z,33.45
2022-11-07T01:59:30.774Z,36.50
2022-11-07T02:01:58.466Z,34.63
2022-11-07T02:04:27.570Z,34.35
2022-11-07T02:07:07.544Z,36.55
2022-11-07T02:09:34.621Z,35.15
2022-11-07T02:12:02.589Z,36.53
2022-11-07T02:14:29.767Z,38.45
2022-11-07T02:16:57.111Z,36.67
2022-11-07T02:19:41.520Z,37.45
2022-11-07T02:22:35.603Z,36.90
2022-11-07T02:25:06.407Z,38.40
2022-11-07T02:27:34.658Z,37.17
2022-11-07T02:30:06.027Z,39.67
2022-11-07T02:32:32.895Z,41.87
2022-11-07T02:35:05.440Z,40.72
2022-11-07T02:37:39.439Z,41.88
2022-11-07T02:40:09.602Z,40.65
2022-11-07T02:42:44.853Z,43.00
2022-11-07T02:45:19.786Z,38.90
2022-11-07T02:47:46.537Z,39.85
2022-11-07T02:50:15.819Z,41.10
2022-11-07T02:52:43.359Z,40.70
2022-11-07T02:55:11.489Z,43.40
2022-11-07T02:57:38.145Z,42.42
2022-11-07T03:00:07.081Z,41.15
2022-11-07T03:02:33.882Z,43.03
2022-11-07T03:05:00.768Z,40.72
2022-11-07T03:07:27.689Z,40.28
2022-11-07T03:09:54.326Z,39.78
2022-11-07T03:12:21.427Z,39.50
2022-11-07T03:14:48.075Z,40.28
2022-11-07T03:17:14.689Z,40.92
2022-11-07T03:19:41.886Z,41.50
2022-11-07T03:22:08.535Z,45.78
2022-11-07T03:24:35.143Z,44.17
2022-11-07T03:27:01.706Z,44.15
2022-11-07T03:29:28.371Z,42.65
2022-11-07T03:31:55.043Z,41.88
2022-11-07T03:34:21.814Z,42.95
2022-11-07T03:36:48.508Z,45.22
2022-11-07T03:39:15.166Z,43.75
2022-11-07T03:41:41.761Z,39.80
2022-11-07T03:44:08.458Z,40.05
2022-11-07T03:46:35.093Z,41.42
2022-11-07T03:49:01.921Z,41.80
2022-11-07T03:51:28.675Z,39.53
2022-11-07T03:53:55.244Z,41.63
2022-11-07T03:56:21.891Z,40.47
2022-11-07T03:58:48.587Z,38.42
2022-11-07T04:01:15.197Z,36.63
2022-11-07T04:03:41.920Z,38.65
2022-11-07T04:06:08.715Z,37.03
2022-11-07T04:08:35.872Z,36.38
2022-11-07T04:11:02.443Z,36.45
2022-11-07T04:13:47.552Z,33.80
2022-11-07T04:16:32.919Z,32.80
2022-11-07T04:19:01.572Z,32.50
2022-11-07T04:21:28.195Z,32.80
2022-11-07T04:23:54.778Z,32.75
2022-11-07T04:26:40.105Z,32.28
2022-11-07T04:29:06.659Z,30.98
2022-11-07T04:31:34.508Z,32.38
2022-11-07T04:34:01.146Z,31.90
2022-11-07T04:36:28.047Z,30.88
2022-11-07T04:38:54.713Z,32.67
2022-11-07T04:41:24.183Z,35.85
2022-11-07T04:43:51.285Z,34.65
2022-11-07T04:46:18.291Z,37.05
2022-11-07T04:48:45.103Z,35.72
2022-11-07T04:51:21.757Z,34.03
2022-11-07T04:53:48.824Z,35.47
2022-11-07T04:56:15.510Z,35.75
2022-11-07T04:58:42.374Z,38.92
2022-11-07T05:01:09.041Z,38.17
2022-11-07T05:03:41.265Z,37.40
2022-11-07T05:06:13.588Z,38.13
2022-11-07T05:08:40.321Z,37.38
2022-11-07T05:11:06.897Z,36.72
2022-11-07T05:13:33.611Z,36.55
2022-11-07T05:16:00.201Z,38.90
2022-11-07T05:18:26.882Z,38.88
2022-11-07T05:20:53.442Z,35.95
2022-11-07T05:23:20.635Z,37.80
2022-11-07T05:25:47.434Z,36.17
2022-11-07T05:28:17.460Z,34.38
2022-11-07T05:30:45.272Z,33.88
2022-11-07T05:33:15.104Z,35.05
2022-11-07T05:35:42.584Z,32.92
2022-11-07T05:38:10.142Z,33.70
2022-11-07T05:40:38.743Z,32.38
2022-11-07T05:43:10.906Z,32.40
2022-11-07T05:48:07.872Z,34.58
2022-11-07T05:50:34.535Z,32.97
2022-11-07T05:53:01.731Z,32.65
2022-11-07T05:55:28.923Z,35.35
2022-11-07T05:57:56.086Z,33.70
2022-11-07T06:00:22.941Z,31.02
2022-11-07T06:02:57.741Z,33.70
2022-11-07T06:05:24.682Z,32.33
2022-11-07T06:07:51.391Z,32.95
2022-11-07T06:10:18.787Z,30.30
2022-11-07T06:12:46.227Z,33.83
2022-11-07T06:15:12.913Z,31.90
2022-11-07T06:17:39.550Z,32.38
2022-11-07T06:20:06.930Z,39.50
2022-11-07T06:22:33.889Z,37.30
2022-11-07T06:25:01.397Z,35.47
2022-11-07T06:27:28.112Z,38.13
2022-11-07T06:29:54.900Z,34.33
2022-11-07T06:32:21.533Z,32.47
2022-11-07T06:34:48.542Z,31.88
2022-11-07T06:37:15.736Z,32.28
2022-11-07T06:39:42.588Z,31.10
2022-11-07T06:42:09.819Z,30.75
2022-11-07T06:44:37.075Z,31.25
2022-11-07T06:47:03.880Z,31.60
2022-11-07T06:49:31.019Z,30.55
2022-11-07T06:51:57.574Z,29.38
2022-11-07T06:54:24.189Z,32.58
2022-11-07T06:56:50.952Z,35.05
2022-11-07T06:59:17.667Z,34.42
2022-11-07T07:01:44.483Z,33.80
2022-11-07T07:04:11.609Z,33.42
2022-11-07T07:06:40.255Z,32.33
2022-11-07T07:09:07.132Z,33.88
2022-11-07T07:11:36.284Z,31.13
2022-11-07T07:14:04.700Z,29.85
2022-11-07T07:16:34.082Z,28.83
2022-11-07T07:19:00.721Z,29.02
2022-11-07T07:21:27.436Z,29.40
2022-11-07T07:23:54.166Z,26.88
2022-11-07T07:26:20.755Z,27.52
2022-11-07T07:28:49.090Z,25.50
2022-11-07T07:31:15.845Z,24.17
2022-11-07T07:33:43.624Z,25.63
2022-11-07T07:36:12.462Z,23.98
2022-11-07T07:38:41.897Z,23.08
2022-11-07T07:41:08.892Z,23.92
2022-11-07T07:43:35.751Z,23.95
2022-11-07T07:46:05.911Z,21.38
2022-11-07T07:48:33.230Z,22.73
2022-11-07T07:50:59.803Z,23.85
2022-11-07T07:53:26.426Z,23.35
2022-11-07T07:55:58.087Z,25.05
2022-11-07T07:58:27.021Z,25.42
2022-11-07T08:00:58.219Z,24.80
2022-11-07T08:03:29.335Z,26.65
2022-11-07T08:06:02.213Z,25.58
2022-11-07T08:08:31.491Z,24.45
2022-11-07T08:11:07.848Z,26.38
2022-11-07T08:13:34.559Z,28.23
2022-11-07T08:16:04.752Z,27.08
2022-11-07T08:18:31.373Z,31.38
2022-11-07T08:20:58.307Z,30.23
2022-11-07T08:23:25.266Z,31.90
2022-11-07T08:25:56.620Z,32.75
2022-11-07T08:28:26.012Z,34.00
2022-11-07T08:31:01.404Z,31.98
2022-11-07T08:33:28.921Z,22.75
2022-11-07T08:35:57.440Z,23.17
2022-11-07T08:38:24.516Z,23.15
2022-11-07T08:40:51.642Z,25.25
2022-11-07T08:43:19.098Z,24.50
2022-11-07T08:45:48.248Z,21.40
2022-11-07T08:48:17.048Z,24.35
2022-11-07T08:50:43.863Z,24.50
2022-11-07T08:53:18.206Z,22.88
2022-11-07T08:55:45.434Z,20.40
2022-11-07T08:58:12.146Z,20.13
2022-11-07T09:00:38.798Z,20.58
2022-11-07T09:03:44.143Z,20.25
2022-11-07T09:05:57.427Z,21.73
2022-11-07T09:08:24.033Z,23.15
2022-11-07T09:10:51.251Z,18.95
2022-11-07T09:13:19.214Z,20.38
2022-11-07T09:15:50.629Z,20.38
2022-11-07T09:18:19.283Z,20.95
2022-11-07T09:20:45.868Z,18.55
2022-11-07T09:23:13.550Z,19.42
2022-11-07T09:25:40.353Z,19.50
2022-11-07T09:28:07.025Z,19.42
2022-11-07T09:30:33.880Z,19.23
2022-11-07T09:33:00.878Z,18.65
2022-11-07T09:35:27.922Z,17.40
2022-11-07T09:37:54.543Z,19.45
2022-11-07T09:40:40.912Z,16.05
2022-11-07T09:43:25.728Z,16.55
2022-11-07T09:46:01.393Z,15.55
2022-11-07T09:48:38.627Z,11.75
2022-11-07T09:51:06.153Z,12.43
2022-11-07T09:53:42.594Z,13.80
2022-11-07T09:56:12.732Z,13.75
2022-11-07T09:58:52.514Z,10.43
2022-11-07T10:01:21.539Z,13.07
2022-11-07T10:04:22.510Z,14.82
2022-11-07T10:06:49.413Z,13.15
2022-11-07T10:09:40.359Z,14.63
2022-11-07T10:12:43.252Z,12.45
2022-11-07T10:15:17.152Z,12.98
2022-11-07T10:17:59.157Z,16.55
2022-11-07T10:20:34.714Z,12.13
2022-11-07T10:23:17.795Z,12.95
2022-11-07T10:26:10.400Z,15.02
2022-11-07T10:31:15.540Z,16.13
2022-11-07T10:33:51.462Z,15.85
2022-11-07T10:36:21.739Z,14.85
2022-11-07T10:38:49.008Z,13.80
2022-11-07T10:41:19.730Z,15.02
2022-11-07T10:43:53.825Z,16.90
2022-11-07T10:46:25.551Z,13.52
2022-11-07T10:48:57.395Z,15.95
2022-11-07T10:51:38.850Z,14.43
2022-11-07T10:54:06.716Z,12.90
2022-11-07T10:56:48.883Z,14.18
2022-11-07T10:59:25.432Z,13.13
2022-11-07T11:01:55.275Z,12.40
2022-11-07T11:04:24.242Z,11.48
2022-11-07T11:07:03.366Z,12.82
2022-11-07T11:09:34.690Z,13.27
2022-11-07T11:12:13.807Z,13.10
2022-11-07T11:14:40.654Z,13.73
2022-11-07T11:17:28.619Z,13.18
2022-11-07T11:19:55.351Z,13.57
2022-11-07T11:22:25.013Z,13.43
2022-11-07T11:25:03.863Z,13.25
2022-11-07T11:27:34.907Z,12.88
2022-11-07T11:30:21.666Z,14.23
2022-11-07T11:32:48.491Z,12.82
2022-11-07T11:35:42.001Z,13.57
2022-11-07T11:38:18.165Z,12.55
2022-11-07T11:40:53.356Z,13.13
2022-11-07T11:43:26.878Z,12.07
2022-11-07T11:46:15.767Z,13.68
2022-11-07T11:48:51.968Z,13.38
2022-11-07T11:51:33.463Z,14.48
2022-11-07T11:54:01.655Z,13.25
2022-11-07T11:56:50.010Z,12.95
2022-11-07T11:59:20.157Z,13.50
2022-11-07T12:02:14.777Z,13.88
2022-11-07T12:05:09.084Z,10.82
2022-11-07T12:08:04.218Z,13.20
2022-11-07T12:11:02.172Z,14.35
2022-11-07T12:13:34.675Z,12.88
2022-11-07T12:16:20.604Z,13.82
2022-11-07T12:18:47.182Z,12.98
2022-11-07T12:21:22.083Z,12.15
2022-11-07T12:24:27.498Z,12.43
2022-11-07T12:27:02.091Z,12.60
2022-11-07T12:29:53.624Z,12.52
2022-11-07T12:32:51.066Z,13.47
2022-11-07T12:35:35.846Z,12.48
2022-11-07T12:38:14.618Z,12.85
2022-11-07T12:41:12.972Z,14.15
2022-11-07T12:44:09.869Z,13.00
2022-11-07T12:46:51.980Z,13.10
2022-11-07T12:49:47.484Z,12.15
2022-11-07T12:52:43.760Z,13.38
2022-11-07T12:55:40.148Z,14.30
2022-11-07T12:58:18.341Z,13.43
2022-11-07T13:00:46.342Z,13.00
2022-11-07T13:03:46.899Z,13.60
2022-11-07T13:06:35.149Z,14.98
2022-11-07T13:09:23.045Z,13.95
2022-11-07T13:11:59.253Z,13.77
2022-11-07T13:14:31.241Z,14.55
2022-11-07T13:19:40.534Z,14.50
2022-11-07T13:22:16.338Z,13.45
2022-11-07T13:24:52.252Z,13.30
2022-11-07T13:27:24.888Z,13.95
2022-11-07T13:29:52.272Z,12.43
2022-11-07T13:32:19.227Z,14.60
2022-11-07T13:34:48.683Z,14.10
2022-11-07T13:37:25.561Z,14.30
2022-11-07T13:39:59.241Z,14.43
2022-11-07T13:42:28.413Z,13.70
2022-11-07T13:45:01.015Z,13.40
2022-11-07T13:47:41.323Z,13.98
2022-11-07T13:50:19.755Z,14.20
2022-11-07T13:53:02.175Z,14.15
2022-11-07T13:55:41.128Z,14.85
2022-11-07T13:58:13.042Z,13.43
2022-11-07T14:00:39.668Z,13.70
2022-11-07T14:03:06.717Z,14.68
2022-11-07T14:05:38.148Z,12.90
2022-11-07T14:08:20.125Z,13.98
2022-11-07T14:10:49.745Z,16.10
2022-11-07T14:13:40.633Z,14.98
2022-11-07T14:16:21.503Z,13.43
2022-11-07T14:19:13.004Z,14.90
2022-11-07T14:21:39.582Z,15.80
2022-11-07T14:24:23.210Z,14.52
2022-11-07T14:27:00.489Z,13.27
2022-11-07T14:29:27.237Z,13.98
2022-11-07T14:31:59.567Z,14.38
2022-11-07T14:34:26.965Z,14.25
2022-11-07T14:36:59.878Z,15.30
2022-11-07T14:39:32.581Z,13.25
2022-11-07T14:42:02.933Z,13.18
2022-11-07T14:44:53.736Z,13.95
2022-11-07T14:47:28.348Z,14.98
2022-11-07T14:49:56.221Z,13.95
2022-11-07T14:52:32.785Z,13.93
2022-11-07T14:55:17.913Z,24.33
2022-11-07T14:57:45.356Z,47.20
2022-11-07T15:00:15.976Z,21.17
2022-11-07T15:02:42.923Z,21.83
2022-11-07T15:05:29.038Z,23.50
2022-11-07T15:07:57.713Z,20.88
2022-11-07T15:10:39.904Z,21.17
2022-11-07T15:16:06.294Z,29.48
2022-11-07T15:18:39.797Z,46.55
2022-11-07T15:21:07.154Z,35.83
2022-11-07T15:23:35.296Z,37.90
2022-11-07T15:26:08.172Z,30.85
2022-11-07T15:28:52.648Z,30.42
2022-11-07T15:31:26.046Z,29.98
2022-11-07T15:33:54.190Z,27.38
2022-11-07T15:36:21.359Z,22.98
2022-11-07T15:38:49.672Z,23.42
2022-11-07T15:41:17.071Z,26.02
2022-11-07T15:43:43.907Z,25.25
2022-11-07T15:46:34.447Z,25.05
2022-11-07T15:49:02.636Z,26.77
2022-11-07T15:51:30.776Z,26.15
2022-11-07T15:53:57.575Z,27.70
2022-11-07T15:56:26.097Z,24.77
2022-11-07T15:58:54.091Z,25.15
2022-11-07T16:01:20.856Z,25.20
2022-11-07T16:03:47.551Z,27.48
2022-11-07T16:06:30.639Z,30.33
2022-11-07T16:08:58.060Z,27.75
2022-11-07T16:11:24.718Z,27.40
2022-11-07T16:13:59.361Z,26.58
2022-11-07T16:16:35.860Z,26.48
2022-11-07T16:19:02.536Z,27.85
2022-11-07T16:21:29.149Z,29.00
2022-11-07T16:23:55.860Z,28.90
2022-11-07T16:26:30.052Z,27.40
2022-11-07T16:28:56.943Z,26.42
2022-11-07T16:31:23.861Z,25.02
2022-11-07T16:33:50.703Z,26.73
2022-11-07T16:36:21.980Z,28.10
2022-11-07T16:38:48.840Z,29.10
2022-11-07T16:41:15.628Z,28.10
2022-11-07T16:43:43.279Z,26.15
2022-11-07T16:46:18.386Z,29.17
2022-11-07T16:48:47.118Z,29.08
2022-11-07T16:51:16.200Z,28.05
2022-11-07T16:53:43.909Z,26.35
2022-11-07T16:56:32.200Z,27.52
2022-11-07T16:58:59.610Z,26.73
2022-11-07T17:01:27.830Z,32.13
2022-11-07T17:03:54.970Z,28.73
2022-11-07T17:06:33.302Z,28.27
2022-11-07T17:09:08.648Z,29.17
2022-11-07T17:11:37.800Z,29.13
2022-11-07T17:14:04.505Z,29.05
2022-11-07T17:16:35.661Z,31.58
2022-11-07T17:19:02.942Z,33.50
2022-11-07T17:21:40.168Z,38.92
2022-11-07T17:24:07.437Z,36.33
2022-11-07T17:26:37.751Z,41.33
2022-11-07T17:29:12.065Z,33.88
2022-11-07T17:31:38.750Z,33.95
2022-11-07T17:34:05.535Z,32.47
2022-11-07T17:36:37.770Z,31.48
2022-11-07T17:39:12.204Z,31.50
2022-11-07T17:41:40.583Z,28.50
2022-11-07T17:44:07.939Z,28.67
2022-11-07T17:46:36.970Z,27.60
2022-11-07T17:49:09.159Z,28.30
2022-11-07T17:51:36.193Z,26.48
2022-11-07T17:54:04.406Z,27.13
2022-11-07T17:56:31.892Z,26.35
2022-11-07T17:59:07.497Z,27.42
2022-11-07T18:01:37.064Z,26.55
2022-11-07T18:04:05.714Z,28.25
2022-11-07T18:06:37.633Z,30.15
2022-11-07T18:09:06.817Z,26.52
2022-11-07T18:11:34.244Z,27.77
2022-11-07T18:14:01.244Z,27.63
2022-11-07T18:16:31.925Z,29.98
2022-11-07T18:18:59.663Z,30.00
2022-11-07T18:21:27.224Z,29.63
2022-11-07T18:23:55.105Z,35.75
2022-11-07T18:26:30.548Z,28.88
2022-11-07T18:29:02.557Z,29.55
2022-11-07T18:31:35.468Z,28.75
2022-11-07T18:34:04.859Z,33.55
2022-11-07T18:36:35.469Z,33.33
2022-11-07T18:39:04.179Z,39.88
2022-11-07T18:41:30.940Z,35.67
2022-11-07T18:44:03.174Z,34.88
2022-11-07T18:46:31.477Z,37.40
2022-11-07T18:49:00.008Z,36.72
2022-11-07T18:51:27.312Z,35.53
2022-11-07T18:53:54.815Z,40.53
2022-11-07T18:56:25.871Z,40.13
2022-11-07T18:58:52.888Z,40.47
2022-11-07T19:01:27.516Z,44.22
2022-11-07T19:04:15.970Z,42.03
2022-11-07T19:07:04.957Z,41.28
2022-11-07T19:09:41.400Z,38.80
2022-11-07T19:12:08.170Z,32.63
2022-11-07T19:14:35.028Z,33.08
2022-11-07T19:17:01.853Z,36.50
2022-11-07T19:19:28.872Z,37.00
2022-11-07T19:21:55.569Z,39.03
2022-11-07T19:24:22.404Z,38.75
2022-11-07T19:26:49.070Z,39.08
2022-11-07T19:29:16.771Z,37.85
2022-11-07T19:31:44.120Z,38.65
2022-11-07T19:34:11.104Z,38.88
2022-11-07T19:36:37.901Z,38.03
2022-11-07T19:39:04.934Z,39.78
2022-11-07T19:41:31.647Z,38.65
2022-11-07T19:44:01.737Z,39.33
2022-11-07T19:46:28.766Z,38.72
2022-11-07T19:48:56.703Z,39.08
2022-11-07T19:51:23.524Z,37.83
2022-11-07T19:53:58.167Z,36.83
2022-11-07T19:56:29.091Z,38.35
2022-11-07T19:58:56.304Z,38.97
2022-11-07T20:01:26.678Z,40.33
2022-11-07T20:03:54.438Z,38.10
2022-11-07T20:06:32.220Z,37.90
2022-11-07T20:09:00.517Z,46.15
2022-11-07T20:11:27.709Z,48.33
2022-11-07T20:13:58.656Z,43.20
2022-11-07T20:16:28.578Z,38.22
2022-11-07T20:18:55.310Z,36.42
2022-11-07T20:21:23.109Z,36.35
2022-11-07T20:23:51.819Z,38.97
2022-11-07T20:26:21.695Z,39.65
2022-11-07T20:28:49.437Z,40.83
2022-11-07T20:31:25.357Z,38.80
2022-11-07T20:33:52.997Z,40.40
2022-11-07T20:36:20.292Z,39.00
2022-11-07T20:38:47.059Z,37.13
2022-11-07T20:41:14.217Z,35.58
2022-11-07T20:43:41.396Z,37.05
2022-11-07T20:46:10.730Z,35.80
2022-11-07T20:48:38.082Z,36.45
2022-11-07T20:51:16.258Z,36.10
2022-11-07T20:53:49.551Z,35.92
2022-11-07T20:56:17.911Z,36.58
2022-11-07T20:58:44.983Z,36.72
2022-11-07T21:01:15.850Z,33.60
2022-11-07T21:03:44.583Z,34.08
2022-11-07T21:06:14.403Z,33.35
2022-11-07T21:08:43.528Z,37.60
2022-11-07T21:11:11.437Z,35.15
2022-11-07T21:13:38.728Z,33.60
2022-11-07T21:16:06.749Z,36.03
2022-11-07T21:18:33.536Z,35.83
2022-11-07T21:21:16.475Z,35.33
2022-11-07T21:23:43.632Z,40.80
2022-11-07T21:26:19.477Z,39.42
2022-11-07T21:28:46.719Z,36.97
2022-11-07T21:31:18.241Z,39.35
2022-11-07T21:33:46.332Z,36.90
2022-11-07T21:36:20.018Z,40.05
2022-11-07T21:38:47.191Z,39.75
2022-11-07T21:41:17.577Z,38.03
2022-11-07T21:43:44.326Z,36.30
2022-11-07T21:46:14.093Z,38.08
2022-11-07T21:48:41.488Z,36.33
2022-11-07T21:51:29.855Z,37.42
2022-11-07T21:53:58.058Z,37.08
2022-11-07T21:56:26.740Z,37.58
2022-11-07T21:58:56.229Z,39.72
2022-11-07T22:01:24.349Z,37.20
2022-11-07T22:04:09.829Z,39.42
2022-11-07T22:06:40.150Z,37.90
2022-11-07T22:09:08.772Z,36.65
2022-11-07T22:11:35.628Z,38.17
2022-11-07T22:14:02.643Z,36.83
2022-11-07T22:16:29.513Z,38.15
2022-11-07T22:18:56.180Z,35.03
2022-11-07T22:21:23.645Z,36.35
2022-11-07T22:23:50.874Z,35.17
2022-11-07T22:26:21.121Z,35.03
2022-11-07T22:28:48.796Z,36.35
2022-11-07T22:31:26.712Z,35.38
2022-11-07T22:33:54.449Z,34.53
2022-11-07T22:36:21.527Z,34.00
2022-11-07T22:38:48.377Z,33.20
2022-11-07T22:41:18.243Z,34.78
2022-11-07T22:43:45.013Z,36.05
2022-11-07T22:46:14.050Z,34.95
2022-11-07T22:48:41.279Z,34.72
2022-11-07T22:51:14.282Z,35.38
2022-11-07T22:53:41.119Z,34.95
2022-11-07T22:56:16.908Z,37.40
2022-11-07T22:58:44.448Z,36.88
2022-11-07T23:01:20.328Z,38.42
2022-11-07T23:03:47.984Z,36.78
2022-11-07T23:06:15.900Z,35.70
2022-11-07T23:08:42.720Z,34.30
2022-11-07T23:14:03.768Z,38.33
2022-11-07T23:16:32.976Z,36.35
2022-11-07T23:19:02.298Z,38.10
2022-11-07T23:21:29.632Z,35.75
2022-11-07T23:23:57.964Z,35.22
2022-11-07T23:26:26.122Z,35.90
2022-11-07T23:28:53.293Z,34.75
2022-11-07T23:31:20.217Z,35.35
2022-11-07T23:33:46.926Z,35.85
2022-11-07T23:36:15.591Z,36.80
2022-11-07T23:38:43.464Z,35.45
2022-11-07T23:41:13.065Z,36.47
2022-11-07T23:43:40.729Z,35.63
2022-11-07T23:46:26.796Z,35.70
2022-11-07T23:49:14.786Z,35.92
2022-11-07T23:51:42.286Z,36.55
2022-11-07T23:54:27.439Z,37.63
2022-11-07T23:56:54.364Z,35.35
2022-11-07T23:59:39.471Z,36.22
